Hidrolina, Brazil
Current Conditions -  °F | °C
As of 10:00 PM on Friday 19 Dec 2014 (Local Time) from SBAN Reporting Station
Broken Clouds Broken Clouds  
Wind Chill: 68°   Ceiling: 10000
Heat Index: 68°   Visibility: 6mi
Dew Point: 63°   Wind: 5mph
Humidity: 83%   Direction: 30°NNE
Pressure: 30"   Gusts: NA
Location:  14.72°S, 49.46°W
Report Text: SBAN 200000Z 03004KT 9999 FEW025 BKN100 20/17 Q1016
Loading
Personal Weather Stations






























Interactive Weather Map New forecast layout! Learn more

10-Day Weather Forecast

Advertisements
Track Severe Weather on mobile